createdAt,value
2023-05-22T00:00:33.184Z,56
2023-05-22T00:03:03.997Z,56
2023-05-22T00:05:37.285Z,56
2023-05-22T00:08:09.398Z,55
2023-05-22T00:10:50.200Z,56
2023-05-22T00:13:22.035Z,56
2023-05-22T00:16:02.252Z,56
2023-05-22T00:18:39.744Z,56
2023-05-22T00:21:12.798Z,56
2023-05-22T00:23:48.682Z,56
2023-05-22T00:26:19.382Z,56
2023-05-22T00:28:48.402Z,56
2023-05-22T00:31:20.500Z,56
2023-05-22T00:33:50.404Z,56
2023-05-22T00:36:21.148Z,57
2023-05-22T00:38:52.370Z,56
2023-05-22T00:41:21.770Z,57
2023-05-22T00:43:52.887Z,57
2023-05-22T00:46:23.433Z,57
2023-05-22T00:48:57.672Z,57
2023-05-22T00:51:29.159Z,58
2023-05-22T00:54:00.048Z,58
2023-05-22T00:56:30.922Z,58
2023-05-22T00:59:02.292Z,59
2023-05-22T01:01:34.363Z,59
2023-05-22T01:04:05.486Z,59
2023-05-22T01:06:36.104Z,59
2023-05-22T01:09:06.691Z,59
2023-05-22T01:11:37.466Z,60
2023-05-22T01:14:08.419Z,59
2023-05-22T01:16:38.856Z,60
2023-05-22T01:19:08.133Z,60
2023-05-22T01:21:38.825Z,61
2023-05-22T01:24:09.807Z,61
2023-05-22T01:26:38.786Z,61
2023-05-22T01:29:08.988Z,61
2023-05-22T01:31:39.690Z,61
2023-05-22T01:34:10.501Z,61
2023-05-22T01:36:41.360Z,61
2023-05-22T01:39:12.214Z,61
2023-05-22T01:41:43.247Z,60
2023-05-22T01:44:12.582Z,61
2023-05-22T01:46:47.796Z,61
2023-05-22T01:49:18.194Z,62
2023-05-22T01:51:49.752Z,61
2023-05-22T01:54:20.666Z,62
2023-05-22T01:56:52.572Z,62
2023-05-22T01:59:23.525Z,61
2023-05-22T02:01:54.649Z,62
2023-05-22T02:04:25.500Z,63
2023-05-22T02:06:57.096Z,63
2023-05-22T02:09:27.944Z,63
2023-05-22T02:11:57.394Z,64
2023-05-22T02:14:28.238Z,63
2023-05-22T02:16:58.904Z,64
2023-05-22T02:19:29.760Z,64
2023-05-22T02:22:01.270Z,64
2023-05-22T02:24:31.025Z,64
2023-05-22T02:27:06.750Z,64
2023-05-22T02:29:38.712Z,66
2023-05-22T02:32:10.146Z,68
2023-05-22T02:34:41.104Z,66
2023-05-22T02:37:12.416Z,65
2023-05-22T02:39:45.644Z,65
2023-05-22T02:42:18.176Z,64
2023-05-22T02:44:48.860Z,65
2023-05-22T02:47:19.734Z,65
2023-05-22T02:49:50.479Z,65
2023-05-22T02:52:25.122Z,65
2023-05-22T02:55:02.751Z,65
2023-05-22T02:57:32.337Z,65
2023-05-22T03:00:03.382Z,65
2023-05-22T03:02:35.755Z,66
2023-05-22T03:05:06.057Z,66
2023-05-22T03:07:37.072Z,67
2023-05-22T03:10:08.051Z,66
2023-05-22T03:12:41.038Z,65
2023-05-22T03:15:11.554Z,64
2023-05-22T03:17:42.784Z,64
2023-05-22T03:20:13.869Z,64
2023-05-22T03:22:45.019Z,64
2023-05-22T03:25:15.736Z,64
2023-05-22T03:27:46.519Z,63
2023-05-22T03:30:15.925Z,63
2023-05-22T03:32:47.294Z,63
2023-05-22T03:35:18.102Z,63
2023-05-22T03:37:48.790Z,63
2023-05-22T03:40:19.345Z,64
2023-05-22T03:42:49.932Z,63
2023-05-22T03:45:21.855Z,63
2023-05-22T03:47:53.022Z,63
2023-05-22T03:50:23.767Z,63
2023-05-22T03:52:54.205Z,63
2023-05-22T03:55:26.372Z,62
2023-05-22T03:57:56.909Z,63
2023-05-22T04:00:27.954Z,63
2023-05-22T04:02:59.073Z,62
2023-05-22T04:05:29.694Z,63
2023-05-22T04:08:00.627Z,62
2023-05-22T04:10:31.674Z,63
2023-05-22T04:13:02.396Z,63
2023-05-22T04:15:33.606Z,63
2023-05-22T04:18:05.639Z,63
2023-05-22T04:20:36.859Z,62
2023-05-22T04:23:08.548Z,62
2023-05-22T04:25:40.874Z,61
2023-05-22T04:28:11.681Z,61
2023-05-22T04:30:42.382Z,61
2023-05-22T04:33:13.399Z,61
2023-05-22T04:35:44.084Z,61
2023-05-22T04:38:16.276Z,61
2023-05-22T04:40:46.869Z,61
2023-05-22T04:43:17.870Z,62
2023-05-22T04:45:47.416Z,61
2023-05-22T04:48:19.696Z,61
2023-05-22T04:50:50.228Z,61
2023-05-22T04:53:20.993Z,61
2023-05-22T04:55:53.642Z,61
2023-05-22T04:58:25.864Z,60
2023-05-22T05:00:56.799Z,60
2023-05-22T05:03:28.544Z,60
2023-05-22T05:05:59.401Z,60
2023-05-22T05:08:33.803Z,60
2023-05-22T05:11:04.578Z,60
2023-05-22T05:13:35.596Z,60
2023-05-22T05:16:06.368Z,59
2023-05-22T05:18:37.741Z,59
2023-05-22T05:21:08.669Z,59
2023-05-22T05:23:39.413Z,59
2023-05-22T05:26:10.083Z,59
2023-05-22T05:28:40.342Z,59
2023-05-22T05:31:11.301Z,58
2023-05-22T05:33:42.525Z,58
2023-05-22T05:36:14.472Z,58
2023-05-22T05:38:45.266Z,58
2023-05-22T05:41:16.531Z,57
2023-05-22T05:43:48.310Z,57
2023-05-22T05:46:18.949Z,56
2023-05-22T05:48:50.063Z,57
2023-05-22T05:51:20.834Z,56
2023-05-22T05:53:52.069Z,56
2023-05-22T05:56:23.147Z,56
2023-05-22T05:58:54.163Z,55
2023-05-22T06:01:25.120Z,56
2023-05-22T06:03:56.118Z,56
2023-05-22T06:06:27.538Z,55
2023-05-22T06:08:57.697Z,55
2023-05-22T06:11:28.770Z,56
2023-05-22T06:13:58.325Z,56
2023-05-22T06:16:30.280Z,55
2023-05-22T06:19:06.181Z,54
2023-05-22T06:21:36.736Z,55
2023-05-22T06:24:09.980Z,55
2023-05-22T06:26:41.294Z,55
2023-05-22T06:29:15.025Z,54
2023-05-22T06:34:30.613Z,54
2023-05-22T06:37:00.930Z,55
2023-05-22T06:39:34.501Z,53
2023-05-22T06:42:05.554Z,53
2023-05-22T06:44:36.471Z,53
2023-05-22T06:47:07.267Z,53
2023-05-22T06:49:39.981Z,53
2023-05-22T06:52:24.902Z,53
2023-05-22T06:55:01.685Z,53
2023-05-22T06:57:31.686Z,52
2023-05-22T07:00:02.462Z,53
2023-05-22T07:02:33.129Z,53
2023-05-22T07:05:04.276Z,53
2023-05-22T07:07:34.985Z,52
2023-05-22T07:10:14.542Z,52
2023-05-22T07:12:45.015Z,52
2023-05-22T07:15:19.359Z,52
2023-05-22T07:17:50.071Z,52
2023-05-22T07:20:23.203Z,52
2023-05-22T07:22:53.749Z,51
2023-05-22T07:25:25.178Z,51
2023-05-22T07:27:55.595Z,50
2023-05-22T07:30:25.972Z,51
2023-05-22T07:32:56.577Z,49
2023-05-22T07:35:27.322Z,50
2023-05-22T07:37:59.090Z,50
2023-05-22T07:40:31.277Z,50
2023-05-22T07:43:01.587Z,49
2023-05-22T07:45:36.954Z,49
2023-05-22T07:48:06.598Z,49
2023-05-22T07:50:37.802Z,48
2023-05-22T07:53:08.964Z,48
2023-05-22T07:55:40.890Z,48
2023-05-22T07:58:12.835Z,48
2023-05-22T08:00:43.374Z,49
2023-05-22T08:03:24.131Z,49
2023-05-22T08:05:54.712Z,48
2023-05-22T08:08:24.999Z,49
2023-05-22T08:11:03.935Z,49
2023-05-22T08:13:26.589Z,48
2023-05-22T08:16:00.021Z,48
2023-05-22T08:18:27.269Z,48
2023-05-22T08:20:57.821Z,48
2023-05-22T08:23:28.790Z,47
2023-05-22T08:25:59.933Z,48
2023-05-22T08:28:30.280Z,48
2023-05-22T08:31:01.605Z,47
2023-05-22T08:33:38.451Z,48
2023-05-22T08:36:10.205Z,47
2023-05-22T08:38:49.839Z,47
2023-05-22T08:41:20.490Z,46
2023-05-22T08:43:51.439Z,46
2023-05-22T08:46:22.503Z,46
2023-05-22T08:48:53.324Z,46
2023-05-22T08:51:24.001Z,46
2023-05-22T08:53:54.653Z,46
2023-05-22T08:56:27.701Z,46
2023-05-22T08:58:57.164Z,46
2023-05-22T09:01:27.792Z,45
2023-05-22T09:04:02.980Z,44
2023-05-22T09:06:38.275Z,44
2023-05-22T09:09:07.043Z,44
2023-05-22T09:11:37.410Z,43
2023-05-22T09:14:08.080Z,44
2023-05-22T09:16:40.313Z,44
2023-05-22T09:19:16.716Z,43
2023-05-22T09:21:48.352Z,43
2023-05-22T09:24:17.410Z,44
2023-05-22T09:26:48.280Z,43
2023-05-22T09:29:19.008Z,43
2023-05-22T09:31:50.765Z,42
2023-05-22T09:34:21.451Z,42
2023-05-22T09:36:52.118Z,42
2023-05-22T09:39:23.206Z,42
2023-05-22T09:41:54.011Z,42
2023-05-22T09:44:25.116Z,43
2023-05-22T09:46:55.664Z,42
2023-05-22T09:49:26.964Z,41
2023-05-22T09:51:57.748Z,42
2023-05-22T09:54:32.530Z,42
2023-05-22T09:57:04.333Z,43
2023-05-22T09:59:40.471Z,42
2023-05-22T10:02:11.713Z,42
2023-05-22T10:04:42.882Z,41
2023-05-22T10:07:13.552Z,42
2023-05-22T10:09:45.788Z,41
2023-05-22T10:12:16.642Z,41
2023-05-22T10:14:47.586Z,42
2023-05-22T10:17:18.476Z,40
2023-05-22T10:19:49.409Z,40
2023-05-22T10:22:19.391Z,41
2023-05-22T10:24:52.972Z,40
2023-05-22T10:27:24.096Z,42
2023-05-22T10:29:55.288Z,42
2023-05-22T10:32:26.397Z,42
2023-05-22T10:34:58.033Z,42
2023-05-22T10:37:34.115Z,41
2023-05-22T10:40:10.772Z,41
2023-05-22T10:42:42.265Z,40
2023-05-22T10:45:13.104Z,41
2023-05-22T10:47:53.304Z,41
2023-05-22T10:50:24.969Z,41
2023-05-22T10:52:55.687Z,41
2023-05-22T10:55:26.320Z,41
2023-05-22T10:57:58.112Z,38
2023-05-22T11:00:28.707Z,40
2023-05-22T11:03:09.908Z,41
2023-05-22T11:05:31.255Z,39
2023-05-22T11:08:02.011Z,40
2023-05-22T11:10:35.464Z,40
2023-05-22T11:13:06.758Z,39
2023-05-22T11:15:41.824Z,37
2023-05-22T11:18:12.441Z,38
2023-05-22T11:20:43.279Z,39
2023-05-22T11:23:23.269Z,38
2023-05-22T11:25:55.715Z,38
2023-05-22T11:28:26.926Z,38
2023-05-22T11:30:58.503Z,39
2023-05-22T11:33:29.764Z,39
2023-05-22T11:35:59.890Z,41
2023-05-22T11:38:31.737Z,39
2023-05-22T11:41:03.240Z,38
2023-05-22T11:43:33.847Z,38
2023-05-22T11:46:05.165Z,40
2023-05-22T11:48:37.344Z,38
2023-05-22T11:51:09.189Z,38
2023-05-22T11:53:38.517Z,39
2023-05-22T11:56:07.791Z,38
2023-05-22T11:58:38.283Z,38
2023-05-22T12:01:14.025Z,39
2023-05-22T12:03:44.923Z,39
2023-05-22T12:06:17.308Z,38
2023-05-22T12:08:49.489Z,38
2023-05-22T12:11:26.882Z,38
2023-05-22T12:13:57.658Z,37
2023-05-22T12:16:28.435Z,35
2023-05-22T12:19:00.581Z,37
2023-05-22T12:21:33.944Z,37
2023-05-22T12:24:04.991Z,37
2023-05-22T12:26:36.192Z,37
2023-05-22T12:29:07.805Z,37
2023-05-22T12:31:38.062Z,37
2023-05-22T12:34:09.025Z,38
2023-05-22T12:36:40.702Z,37
2023-05-22T12:39:11.690Z,38
2023-05-22T12:41:42.210Z,37
2023-05-22T12:44:11.326Z,36
2023-05-22T12:46:44.997Z,37
2023-05-22T12:49:15.945Z,37
2023-05-22T12:51:45.739Z,37
2023-05-22T12:54:16.306Z,36
2023-05-22T12:56:50.042Z,36
2023-05-22T12:59:22.453Z,36
2023-05-22T13:02:01.402Z,35
2023-05-22T13:04:32.469Z,35
2023-05-22T13:07:06.592Z,35
2023-05-22T13:09:37.278Z,36
2023-05-22T13:12:07.780Z,39
2023-05-22T13:14:41.608Z,40
2023-05-22T13:17:12.398Z,40
2023-05-22T13:19:42.946Z,41
2023-05-22T13:22:13.548Z,42
2023-05-22T13:24:51.625Z,42
2023-05-22T13:27:25.907Z,43
2023-05-22T13:29:56.890Z,43
2023-05-22T13:32:27.581Z,43
2023-05-22T13:34:59.293Z,43
2023-05-22T13:37:29.906Z,43
2023-05-22T13:40:00.180Z,43
2023-05-22T13:42:30.620Z,43
2023-05-22T13:45:04.754Z,43
2023-05-22T13:47:37.398Z,44
2023-05-22T13:50:08.132Z,44
2023-05-22T13:52:40.983Z,42
2023-05-22T13:55:13.218Z,45
2023-05-22T13:57:45.997Z,45
2023-05-22T14:00:17.906Z,44
2023-05-22T14:02:49.016Z,45
2023-05-22T14:05:25.647Z,45
2023-05-22T14:07:56.445Z,46
2023-05-22T14:10:28.236Z,46
2023-05-22T14:13:01.196Z,45
2023-05-22T14:15:36.507Z,44
2023-05-22T14:18:08.131Z,44
2023-05-22T14:20:41.681Z,44
2023-05-22T14:23:12.375Z,44
2023-05-22T14:25:42.981Z,44
2023-05-22T14:28:13.730Z,45
2023-05-22T14:30:44.658Z,44
2023-05-22T14:33:19.793Z,44
2023-05-22T14:35:54.857Z,44
2023-05-22T14:38:27.623Z,43
2023-05-22T14:40:58.011Z,43
2023-05-22T14:43:29.542Z,43
2023-05-22T14:46:00.329Z,43
2023-05-22T14:48:30.759Z,42
2023-05-22T14:51:02.647Z,41
2023-05-22T14:53:33.109Z,41
2023-05-22T14:56:03.479Z,41
2023-05-22T14:58:38.457Z,42
2023-05-22T15:01:08.972Z,42
2023-05-22T15:03:39.845Z,43
2023-05-22T15:06:14.129Z,43
2023-05-22T15:08:49.878Z,43
2023-05-22T15:11:21.258Z,43
2023-05-22T15:13:58.421Z,42
2023-05-22T15:16:42.462Z,43
2023-05-22T15:19:14.821Z,42
2023-05-22T15:21:45.603Z,44
2023-05-22T15:24:16.138Z,42
2023-05-22T15:26:46.461Z,43
2023-05-22T15:29:17.219Z,43
2023-05-22T15:31:48.215Z,42
2023-05-22T15:34:20.091Z,42
2023-05-22T15:36:56.825Z,42
2023-05-22T15:39:27.300Z,42
2023-05-22T15:42:05.617Z,43
2023-05-22T15:44:27.978Z,42
2023-05-22T15:47:00.073Z,41
2023-05-22T15:49:33.655Z,42
2023-05-22T15:52:04.080Z,42
2023-05-22T15:54:34.781Z,42
2023-05-22T15:57:04.839Z,43
2023-05-22T15:59:35.231Z,45
2023-05-22T16:02:05.813Z,45
2023-05-22T16:04:35.972Z,45
2023-05-22T16:07:06.438Z,46
2023-05-22T16:09:37.031Z,47
2023-05-22T16:12:10.381Z,45
2023-05-22T16:14:44.889Z,45
2023-05-22T16:17:17.570Z,44
2023-05-22T16:19:47.899Z,43
2023-05-22T16:22:18.200Z,41
2023-05-22T16:24:52.425Z,41
2023-05-22T16:27:28.652Z,41
2023-05-22T16:30:00.235Z,41
2023-05-22T16:32:31.075Z,42
2023-05-22T16:35:01.472Z,42
2023-05-22T16:37:33.131Z,43
2023-05-22T16:40:11.961Z,42
2023-05-22T16:42:45.280Z,41
2023-05-22T16:45:28.814Z,41
2023-05-22T16:48:08.377Z,41
2023-05-22T16:50:38.316Z,41
2023-05-22T16:53:09.193Z,41
2023-05-22T16:55:39.669Z,42
2023-05-22T16:58:10.026Z,42
2023-05-22T17:00:40.665Z,42
2023-05-22T17:03:17.486Z,43
2023-05-22T17:05:46.390Z,43
2023-05-22T17:08:20.610Z,43
2023-05-22T17:10:54.914Z,44
2023-05-22T17:13:25.171Z,44
2023-05-22T17:15:56.274Z,44
2023-05-22T17:18:28.440Z,44
2023-05-22T17:20:59.181Z,45
2023-05-22T17:23:29.600Z,45
2023-05-22T17:25:59.874Z,46
2023-05-22T17:28:34.811Z,46
2023-05-22T17:31:05.215Z,46
2023-05-22T17:33:35.604Z,47
2023-05-22T17:36:05.887Z,48
2023-05-22T17:38:36.440Z,48
2023-05-22T17:41:07.759Z,48
2023-05-22T17:43:42.850Z,48
2023-05-22T17:46:15.307Z,48
2023-05-22T17:48:46.968Z,48
2023-05-22T17:51:20.350Z,48
2023-05-22T17:53:54.655Z,49
2023-05-22T17:56:27.855Z,49
2023-05-22T17:58:58.438Z,49
2023-05-22T18:01:29.054Z,49
2023-05-22T18:03:59.767Z,49
2023-05-22T18:06:32.476Z,49
2023-05-22T18:09:03.399Z,50
2023-05-22T18:11:36.412Z,50
2023-05-22T18:14:09.539Z,50
2023-05-22T18:16:42.071Z,51
2023-05-22T18:19:13.073Z,50
2023-05-22T18:21:46.558Z,50
2023-05-22T18:24:15.690Z,50
2023-05-22T18:26:46.667Z,49
2023-05-22T18:29:19.501Z,49
2023-05-22T18:31:50.523Z,50
2023-05-22T18:37:01.619Z,51
2023-05-22T18:39:36.250Z,51
2023-05-22T18:42:05.665Z,51
2023-05-22T18:44:36.001Z,51
2023-05-22T18:47:09.328Z,50
2023-05-22T18:49:49.854Z,51
2023-05-22T18:52:18.822Z,51
2023-05-22T18:54:47.486Z,50
2023-05-22T18:57:20.642Z,50
2023-05-22T18:59:51.110Z,51
2023-05-22T19:02:23.094Z,53
2023-05-22T19:04:55.418Z,53
2023-05-22T19:07:26.547Z,54
2023-05-22T19:09:57.233Z,54
2023-05-22T19:12:28.226Z,54
2023-05-22T19:15:00.540Z,55
2023-05-22T19:17:33.741Z,55
2023-05-22T19:20:06.457Z,55
2023-05-22T19:22:37.516Z,55
2023-05-22T19:25:08.721Z,57
2023-05-22T19:27:39.508Z,56
2023-05-22T19:30:08.262Z,55
2023-05-22T19:32:40.408Z,55
2023-05-22T19:35:10.990Z,56
2023-05-22T19:37:41.453Z,56
2023-05-22T19:40:14.913Z,56
2023-05-22T19:42:46.123Z,57
2023-05-22T19:45:20.916Z,57
2023-05-22T19:47:51.978Z,57
2023-05-22T19:50:23.158Z,58
2023-05-22T19:52:58.630Z,57
2023-05-22T19:55:32.998Z,57
2023-05-22T19:58:04.653Z,57
2023-05-22T20:00:34.949Z,57
2023-05-22T20:03:05.615Z,57
2023-05-22T20:05:35.908Z,57
2023-05-22T20:08:10.029Z,57
2023-05-22T20:10:40.968Z,57
2023-05-22T20:13:11.233Z,56
2023-05-22T20:15:42.272Z,56
2023-05-22T20:18:12.553Z,57
2023-05-22T20:20:43.042Z,56
2023-05-22T20:23:13.648Z,56
2023-05-22T20:25:44.046Z,56
2023-05-22T20:28:14.249Z,57
2023-05-22T20:30:44.648Z,57
2023-05-22T20:33:16.138Z,57
2023-05-22T20:35:46.437Z,57
2023-05-22T20:38:20.508Z,58
2023-05-22T20:40:53.057Z,59
2023-05-22T20:43:23.655Z,59
2023-05-22T20:45:52.845Z,59
2023-05-22T20:48:23.923Z,59
2023-05-22T20:50:54.462Z,59
2023-05-22T20:53:26.396Z,60
2023-05-22T20:55:57.555Z,59
2023-05-22T20:58:27.876Z,60
2023-05-22T21:00:58.307Z,60
2023-05-22T21:03:28.602Z,60
2023-05-22T21:05:59.917Z,62
2023-05-22T21:08:30.268Z,61
2023-05-22T21:11:01.046Z,61
2023-05-22T21:13:31.430Z,61
2023-05-22T21:16:02.502Z,60
2023-05-22T21:18:33.081Z,60
2023-05-22T21:21:03.915Z,61
2023-05-22T21:23:34.482Z,61
2023-05-22T21:26:04.830Z,62
2023-05-22T21:28:35.880Z,62
2023-05-22T21:31:06.436Z,62
2023-05-22T21:33:37.285Z,62
2023-05-22T21:36:07.905Z,63
2023-05-22T21:38:38.685Z,62
2023-05-22T21:41:09.319Z,62
2023-05-22T21:43:39.797Z,62
2023-05-22T21:46:08.902Z,62
2023-05-22T21:48:39.317Z,62
2023-05-22T21:51:09.965Z,62
2023-05-22T21:53:40.549Z,62
2023-05-22T21:56:11.287Z,62
2023-05-22T21:58:41.698Z,62
2023-05-22T22:01:12.330Z,62
2023-05-22T22:03:43.299Z,63
2023-05-22T22:06:13.887Z,62
2023-05-22T22:08:44.550Z,63
2023-05-22T22:11:15.967Z,63
2023-05-22T22:13:46.620Z,64
2023-05-22T22:16:17.600Z,65
2023-05-22T22:18:48.387Z,66
2023-05-22T22:21:19.668Z,65
2023-05-22T22:23:50.576Z,65
2023-05-22T22:26:21.349Z,64
2023-05-22T22:28:51.860Z,64
2023-05-22T22:31:23.306Z,65
2023-05-22T22:33:54.130Z,65
2023-05-22T22:36:24.794Z,65
2023-05-22T22:38:55.516Z,65
2023-05-22T22:41:26.565Z,65
2023-05-22T22:43:57.070Z,64
2023-05-22T22:46:27.701Z,64
2023-05-22T22:48:59.222Z,64
2023-05-22T22:51:30.428Z,64
2023-05-22T22:54:01.261Z,64
2023-05-22T22:56:32.176Z,64
2023-05-22T22:59:02.678Z,64
2023-05-22T23:01:33.726Z,64
2023-05-22T23:04:04.465Z,64
2023-05-22T23:06:35.315Z,64
2023-05-22T23:09:06.051Z,64
2023-05-22T23:11:36.927Z,64
2023-05-22T23:14:07.725Z,64
2023-05-22T23:16:39.399Z,64
2023-05-22T23:19:09.871Z,64
2023-05-22T23:21:40.365Z,65
2023-05-22T23:24:12.181Z,64
2023-05-22T23:26:42.621Z,64
2023-05-22T23:29:13.880Z,65
2023-05-22T23:31:44.809Z,65
2023-05-22T23:34:15.614Z,65
2023-05-22T23:36:46.914Z,65
2023-05-22T23:39:17.737Z,65
2023-05-22T23:41:48.203Z,65
2023-05-22T23:44:19.162Z,66
2023-05-22T23:46:50.728Z,66
2023-05-22T23:49:21.518Z,65
2023-05-22T23:51:53.104Z,66
2023-05-22T23:54:24.429Z,66
2023-05-22T23:56:54.920Z,65
2023-05-22T23:59:25.952Z,66
